< < Back
Terminal Aerodrome Forecast


Current Version              Previous Versions:   1  2  3  4  5  6  7  8  9  

Terminal Aerodrome Forecast

351
FTUS42 KGSP 240903 AAA
TAFCLT
TAF AMD
KCLT 240903Z 2409/2506 12006KT P6SM SCT060
     FM241500 17004KT P6SM SCT050=

Latest METAR

250
SAUS70 KWBC 241900
MTRCLT
METAR KCLT 241852Z VRB03KT 10SM SCT046 SCT070 BKN250 31/18 A3026 RMK AO2
SLP237 T03110178


USA.gov is the U.S. government's official web portal to all federal, state and local government web resources and services.